Flight Track Log - Related Links

Times and Time Zones

All times are in EDT time to prevent confusion due to time zone crossing. See the DAL1205 flight status page for this flight to view local times or setup timezone preferences in your user account.

Time Position Orientation Groundspeed Altitude Reporting Facility
EDT Latitude Longitude Course Direction KTS MPH feet Rate Location/Type
Sat 07:12:24 PM 33.6500 -84.4667 342° North 171 197 2,400  Level Atlanta TRACON
Sat 07:13:24 PM 33.6667 -84.5333 287° West 251 289 5,100 3,050 Climbing Atlanta TRACON
Sat 07:14:00 PM 33.8756 -84.5667 North  Level FlightAware Approximate
Sat 07:14:24 PM 33.7333 -84.5833 328° Northwest 284 327 8,500  Level Atlanta TRACON
Sat 07:15:00 PM 33.9794 -84.6050 342° North  Level FlightAware Approximate
Sat 07:16:00 PM 34.0828 -84.6463 342° North  Level FlightAware Approximate
Sat 07:16:41 PM 33.9308 -84.5972 357° North 348 400 13,000  Level Atlanta Center
Sat 07:17:00 PM 34.1861 -84.6878 342° North  Level FlightAware Approximate
Sat 07:17:41 PM 34.0350 -84.6328 344° North 379 436 15,800  Level Atlanta Center
Sat 07:18:41 PM 34.1475 -84.6739 343° North 402 463 18,200 2,350 Climbing Atlanta Center
Sat 07:19:41 PM 34.2683 -84.7225 342° North 414 476 20,500 2,300 Climbing Atlanta Center
Sat 07:20:41 PM 34.3700 -84.7989 328° Northwest 419 482 22,800 2,350 Climbing Atlanta Center
Sat 07:21:41 PM 34.4697 -84.8728 329° Northwest 425 489 25,200 1,600 Climbing Atlanta Center
Sat 07:22:41 PM 34.5694 -84.9494 328° Northwest 425 489 26,000 400 Climbing Atlanta Center
Sat 07:23:41 PM 34.6669 -85.0236 328° Northwest 419 482 26,000  Level Atlanta Center
Sat 07:24:41 PM 34.7622 -85.0981 327° Northwest 414 476 26,000  Level Atlanta Center
Sat 07:25:41 PM 34.8597 -85.1753 327° Northwest 414 476 26,000 -688 Level Atlanta Center
Sat 07:27:18 PM 35.0208 -85.2961 328° Northwest 422 486 24,200 -764 Descending Memphis Center
Sat 07:28:18 PM 35.1158 -85.3714 327° Northwest 422 486 24,000 -500 Descending Memphis Center
Sat 07:29:18 PM 35.2047 -85.4603 321° Northwest 422 486 23,200 -1,100 Descending Memphis Center
Sat 07:30:18 PM 35.2817 -85.5600 313° West 415 478 21,800 -1,350 Descending Memphis Center
Sat 07:31:18 PM 35.3564 -85.6575 313° West 405 466 20,500 -1,300 Descending Memphis Center
Sat 07:32:18 PM 35.4308 -85.7553 313° West 399 459 19,200 2,750 Descending Memphis Center
Sat 07:33:18 PM 35.5053 -85.8506 314° West 399 459 26,000 -1,550 Climbing Memphis Center
Sat 07:34:18 PM 35.5753 -85.9439 313° West 393 452 16,100 -6,350 Descending Memphis Center
Sat 07:35:18 PM 35.6453 -86.0372 313° West 382 440 13,300 -2,650 Descending Memphis Center
Sat 07:36:18 PM 35.7153 -86.1306 313° West 376 433 10,800 -1,650 Descending Memphis Center
Sat 07:37:18 PM 35.7661 -86.2150 307° West 342 394 10,000 -1,000 Descending Memphis Center
Sat 07:38:18 PM 35.7981 -86.3003 295° West 294 338 8,800 -1,350 Descending Memphis Center
Sat 07:39:18 PM 35.8239 -86.3836 291° West 271 312 7,300 -1,650 Descending Memphis Center
Sat 07:40:18 PM 35.8556 -86.4639 296° West 263 303 5,500 -1,750 Descending Memphis Center
Sat 07:41:18 PM 35.8872 -86.5419 297° West 263 303 3,800 -1,250 Descending Memphis Center
Sat 07:42:18 PM 35.9125 -86.6203 292° West 254 292 3,000 -400 Descending Memphis Center
Sat 07:43:18 PM 35.9497 -86.6800 308° West 223 257 3,000  Level Memphis Center

Login

Don't have an account? Register now (free) for customized features, flight alerts, and more!